Issaquah, WA

4:20 AM PDT on August 28, 2014 (GMT -0700)
Horizon Crest | Change Station
CLOSE
Current Station
Personal Weather Station
Location: Bellevue, WA
Elevation: 1000 ft
Nearby Weather Stations

Elev 1000 ft 47.56 °N, 122.13 °W | Updated 35 seconds ago

Clear
Clear
62.0 °F
Feels Like 62.0 °F
N
0.0
Wind Variable Wind from SSE
Gusts 6.0 mph

Today
High -- | Low -- °F
--% Chance of Precip.
Yesterday
High -- | Low -- °F
Precip. -- in
6:22 AM 7:56 PM
Waxing Crescent, 7% visible
Pressure 30.08 in
Visibility 10.0 miles
Clouds Clear
Dew Point 58 °F
Humidity 86%
Rainfall 0.00 in
Snow Depth Not available.
UV 0 out of 12
Pollen 3.50 out of 12
Air Quality Not available.
Flu Activity Not available.
METAR KRNT 281053Z AUTO 16004KT 10SM CLR 18/14 A3007 RMK AO2 SLP186 T01780144

More Conditions Fewer Conditions

Pressure 30.08 in
Visibility 10.0 miles
Clouds Clear
Dew Point 58 °F
Humidity 86%
Rainfall 0.00 in
Snow Depth Not available.
UV 0 out of 12
Pollen 3.50 out of 12
Air Quality Not available.
Flu Activity Not available.
METAR KRNT 281053Z AUTO 16004KT 10SM CLR 18/14 A3007 RMK AO2 SLP186 T01780144

More Conditions Fewer Conditions

10-Day Weather Forecast

Almanac

Astronomy

Aug. 28, 2014 Rise Set
Actual Time 6:22 AM PDT 7:56 PM PDT
Civil Twilight 5:49 AM PDT 8:28 PM PDT
Nautical Twilight 5:10 AM PDT 9:07 PM PDT
Astronomical Twilight 4:27 AM PDT 9:50 PM PDT
Moon 9:35 AM PDT 9:06 PM PDT
Length of Visible Light 14h 39m
Length of Day
13h 34m
Tomorrow will be 3m 16s shorter.
Waxing Crescent, 7% of the Moon is Illuminated
Today
Waxing Crescent
Sep 2
First Quarter
Sep 8
Full
Sep 15
Last Quarter
Sep 24
New

Today's Extremes

State Highs State Lows

Community

WunderPhotos

Upload Photos

1,747,923 photos uploaded!

Nearby

Snow Depth

Station Depth Elevation
Alpine Meadows 0 in 3500 ft
Mount Gardner 0 in 3000 ft
Olallie Meadows 3 in 3700 ft
Meadows Pass 0 in 3500 ft
Burnt Mountain 0 in 4200 ft

Earthquake Activity

City Distance Mag. Time & Date
No recent earthquake activity has been reported nearby.
Minimum magnitude displayed is 2.5.

Coastal Water Temperatures

Place Temperature
Port Townsend, WA 52.0 °F
Seattle, WA 57.0 °F
Friday Harbor, WA 53.1 °F
Tacoma, WA 55.0 °F

Nearby Weather Stations